createdAt,value
2023-12-20T00:00:33.031Z,19.50
2023-12-20T00:01:33.104Z,19.49
2023-12-20T00:02:33.006Z,19.49
2023-12-20T00:03:41.423Z,19.49
2023-12-20T00:04:34.042Z,19.48
2023-12-20T00:05:32.992Z,19.48
2023-12-20T00:06:33.002Z,19.48
2023-12-20T00:07:33.090Z,19.47
2023-12-20T00:08:32.957Z,19.48
2023-12-20T00:09:32.961Z,19.47
2023-12-20T00:10:32.931Z,19.47
2023-12-20T00:11:32.914Z,19.46
2023-12-20T00:12:32.911Z,19.47
2023-12-20T00:13:32.899Z,19.47
2023-12-20T00:14:32.892Z,19.46
2023-12-20T00:15:32.893Z,19.46
2023-12-20T00:16:32.918Z,19.46
2023-12-20T00:17:32.892Z,19.46
2023-12-20T00:18:32.862Z,19.46
2023-12-20T00:19:33.011Z,19.47
2023-12-20T00:20:32.845Z,19.47
2023-12-20T00:21:32.829Z,19.47
2023-12-20T00:22:32.856Z,19.50
2023-12-20T00:23:32.811Z,19.50
2023-12-20T00:24:32.824Z,19.52
2023-12-20T00:25:32.793Z,19.53
2023-12-20T00:26:32.802Z,19.54
2023-12-20T00:27:32.769Z,19.56
2023-12-20T00:28:32.829Z,19.58
2023-12-20T00:29:32.747Z,19.58
2023-12-20T00:30:32.777Z,19.60
2023-12-20T00:31:32.845Z,19.62
2023-12-20T00:32:32.794Z,19.63
2023-12-20T00:33:32.792Z,19.64
2023-12-20T00:34:32.736Z,19.66
2023-12-20T00:35:32.693Z,19.67
2023-12-20T00:36:32.698Z,19.68
2023-12-20T00:37:32.683Z,19.70
2023-12-20T00:38:41.602Z,19.71
2023-12-20T00:39:32.677Z,19.72
2023-12-20T00:40:32.656Z,19.73
2023-12-20T00:41:32.661Z,19.75
2023-12-20T00:42:32.637Z,19.77
2023-12-20T00:43:32.658Z,19.78
2023-12-20T00:44:32.630Z,19.79
2023-12-20T00:45:32.622Z,19.80
2023-12-20T00:46:32.592Z,19.82
2023-12-20T00:47:32.616Z,19.82
2023-12-20T00:48:32.610Z,19.83
2023-12-20T00:49:32.623Z,19.85
2023-12-20T00:50:32.606Z,19.86
2023-12-20T00:51:32.560Z,19.87
2023-12-20T00:52:32.666Z,19.90
2023-12-20T00:53:32.552Z,19.90
2023-12-20T00:54:32.538Z,19.92
2023-12-20T00:55:32.522Z,19.93
2023-12-20T00:56:32.503Z,19.95
2023-12-20T00:57:32.685Z,19.97
2023-12-20T00:58:32.520Z,19.98
2023-12-20T00:59:32.509Z,20.00
2023-12-20T01:00:32.525Z,20.00
2023-12-20T01:01:32.535Z,20.02
2023-12-20T01:02:32.479Z,20.04
2023-12-20T01:03:32.571Z,20.04
2023-12-20T01:04:32.479Z,20.05
2023-12-20T01:05:32.497Z,20.05
2023-12-20T01:06:32.416Z,20.07
2023-12-20T01:07:32.420Z,20.08
2023-12-20T01:08:53.397Z,20.09
2023-12-20T01:09:32.398Z,20.07
2023-12-20T01:10:32.384Z,20.09
2023-12-20T01:11:32.386Z,20.11
2023-12-20T01:12:32.372Z,20.12
2023-12-20T01:13:32.372Z,20.12
2023-12-20T01:14:32.355Z,20.13
2023-12-20T01:15:32.345Z,20.15
2023-12-20T01:16:32.325Z,20.15
2023-12-20T01:17:32.356Z,20.17
2023-12-20T01:18:32.311Z,20.16
2023-12-20T01:19:32.400Z,20.17
2023-12-20T01:20:32.307Z,20.18
2023-12-20T01:21:32.301Z,20.19
2023-12-20T01:22:32.271Z,20.19
2023-12-20T01:23:32.268Z,20.20
2023-12-20T01:24:32.262Z,20.20
2023-12-20T01:25:32.265Z,20.20
2023-12-20T01:26:32.260Z,20.21
2023-12-20T01:27:32.233Z,20.22
2023-12-20T01:28:32.275Z,20.22
2023-12-20T01:29:32.231Z,20.23
2023-12-20T01:30:32.290Z,20.24
2023-12-20T01:31:32.262Z,20.24
2023-12-20T01:32:32.209Z,20.24
2023-12-20T01:33:32.247Z,20.24
2023-12-20T01:34:32.257Z,20.25
2023-12-20T01:35:32.165Z,20.26
2023-12-20T01:36:32.163Z,20.25
2023-12-20T01:37:32.152Z,20.26
2023-12-20T01:38:32.147Z,20.26
2023-12-20T01:39:32.132Z,20.26
2023-12-20T01:40:32.204Z,20.26
2023-12-20T01:41:32.199Z,20.27
2023-12-20T01:42:32.092Z,20.27
2023-12-20T01:43:37.870Z,20.28
2023-12-20T01:44:33.136Z,20.28
2023-12-20T01:45:32.066Z,20.28
2023-12-20T01:46:32.067Z,20.29
2023-12-20T01:47:32.120Z,20.30
2023-12-20T01:48:32.042Z,20.30
2023-12-20T01:49:32.124Z,20.31
2023-12-20T01:50:32.023Z,20.31
2023-12-20T01:51:32.018Z,20.32
2023-12-20T01:52:32.042Z,20.32
2023-12-20T01:53:40.952Z,20.33
2023-12-20T01:54:32.020Z,20.33
2023-12-20T01:55:31.987Z,20.34
2023-12-20T01:56:31.956Z,20.35
2023-12-20T01:57:31.958Z,20.36
2023-12-20T01:58:35.857Z,20.36
2023-12-20T01:59:31.945Z,20.37
2023-12-20T02:00:31.928Z,20.38
2023-12-20T02:01:32.088Z,20.39
2023-12-20T02:02:31.919Z,20.40
2023-12-20T02:03:35.867Z,20.40
2023-12-20T02:04:32.003Z,20.41
2023-12-20T02:05:31.908Z,20.42
2023-12-20T02:06:31.901Z,20.42
2023-12-20T02:07:31.892Z,20.43
2023-12-20T02:08:35.795Z,20.44
2023-12-20T02:09:31.845Z,20.44
2023-12-20T02:10:31.860Z,20.45
2023-12-20T02:11:31.845Z,20.45
2023-12-20T02:12:31.818Z,20.46
2023-12-20T02:13:31.828Z,20.46
2023-12-20T02:14:31.794Z,20.47
2023-12-20T02:15:31.816Z,20.48
2023-12-20T02:16:31.785Z,20.48
2023-12-20T02:17:31.840Z,20.48
2023-12-20T02:18:31.856Z,20.49
2023-12-20T02:19:31.846Z,20.50
2023-12-20T02:20:31.738Z,20.50
2023-12-20T02:21:31.740Z,20.51
2023-12-20T02:22:31.715Z,20.51
2023-12-20T02:23:31.745Z,20.51
2023-12-20T02:24:31.714Z,20.52
2023-12-20T02:25:31.753Z,20.53
2023-12-20T02:26:31.675Z,20.54
2023-12-20T02:27:31.688Z,20.54
2023-12-20T02:28:31.713Z,20.54
2023-12-20T02:29:31.665Z,20.55
2023-12-20T02:30:31.669Z,20.55
2023-12-20T02:31:31.725Z,20.55
2023-12-20T02:32:31.683Z,20.55
2023-12-20T02:33:31.616Z,20.57
2023-12-20T02:34:31.673Z,20.57
2023-12-20T02:35:31.608Z,20.57
2023-12-20T02:36:31.594Z,20.58
2023-12-20T02:37:31.581Z,20.58
2023-12-20T02:38:31.566Z,20.59
2023-12-20T02:39:31.551Z,20.58
2023-12-20T02:40:31.543Z,20.60
2023-12-20T02:41:31.536Z,20.61
2023-12-20T02:42:31.540Z,20.61
2023-12-20T02:43:35.485Z,20.61
2023-12-20T02:44:31.524Z,20.61
2023-12-20T02:45:31.536Z,20.62
2023-12-20T02:46:31.487Z,20.62
2023-12-20T02:47:31.528Z,20.63
2023-12-20T02:48:31.559Z,20.63
2023-12-20T02:49:31.518Z,20.64
2023-12-20T02:50:31.482Z,20.64
2023-12-20T02:51:31.441Z,20.65
2023-12-20T02:52:31.484Z,20.65
2023-12-20T02:53:31.421Z,20.65
2023-12-20T02:54:31.418Z,20.66
2023-12-20T02:55:31.398Z,20.67
2023-12-20T02:56:31.395Z,20.67
2023-12-20T02:57:31.411Z,20.67
2023-12-20T02:58:40.355Z,20.67
2023-12-20T02:59:31.358Z,20.67
2023-12-20T03:00:31.349Z,20.67
2023-12-20T03:01:31.448Z,20.68
2023-12-20T03:02:31.334Z,20.68
2023-12-20T03:03:35.282Z,20.69
2023-12-20T03:04:31.422Z,20.69
2023-12-20T03:05:31.493Z,20.69
2023-12-20T03:06:31.326Z,20.69
2023-12-20T03:07:31.309Z,20.70
2023-12-20T03:08:32.063Z,20.70
2023-12-20T03:09:38.787Z,20.70
2023-12-20T03:10:32.317Z,20.70
2023-12-20T03:11:31.258Z,20.70
2023-12-20T03:12:31.229Z,20.71
2023-12-20T03:13:31.238Z,20.72
2023-12-20T03:14:31.207Z,20.71
2023-12-20T03:15:31.224Z,20.72
2023-12-20T03:16:31.202Z,20.72
2023-12-20T03:17:31.222Z,20.73
2023-12-20T03:18:35.153Z,20.73
2023-12-20T03:19:31.233Z,20.72
2023-12-20T03:20:31.153Z,20.73
2023-12-20T03:21:31.160Z,20.73
2023-12-20T03:22:31.136Z,20.73
2023-12-20T03:23:31.133Z,20.74
2023-12-20T03:24:31.136Z,20.74
2023-12-20T03:25:31.274Z,20.74
2023-12-20T03:26:31.141Z,20.74
2023-12-20T03:27:31.097Z,20.74
2023-12-20T03:28:40.079Z,20.74
2023-12-20T03:29:31.083Z,20.74
2023-12-20T03:30:31.087Z,20.74
2023-12-20T03:31:31.093Z,20.74
2023-12-20T03:32:31.128Z,20.75
2023-12-20T03:33:31.076Z,20.74
2023-12-20T03:34:31.112Z,20.75
2023-12-20T03:35:31.019Z,20.76
2023-12-20T03:36:31.009Z,20.75
2023-12-20T03:37:31.011Z,20.75
2023-12-20T03:38:31.066Z,20.76
2023-12-20T03:39:30.979Z,20.76
2023-12-20T03:40:31.034Z,20.76
2023-12-20T03:41:30.977Z,20.76
2023-12-20T03:42:30.951Z,20.77
2023-12-20T03:43:34.921Z,20.77
2023-12-20T03:44:30.931Z,20.76
2023-12-20T03:45:30.942Z,20.77
2023-12-20T03:46:30.909Z,20.77
2023-12-20T03:47:30.956Z,20.77
2023-12-20T03:48:30.889Z,20.78
2023-12-20T03:49:30.952Z,20.78
2023-12-20T03:50:30.936Z,20.78
2023-12-20T03:51:30.889Z,20.77
2023-12-20T03:52:30.868Z,20.77
2023-12-20T03:53:30.849Z,20.78
2023-12-20T03:54:30.835Z,20.78
2023-12-20T03:55:30.838Z,20.78
2023-12-20T03:56:30.821Z,20.78
2023-12-20T03:57:30.820Z,20.78
2023-12-20T03:58:30.803Z,20.79
2023-12-20T03:59:30.794Z,20.79
2023-12-20T04:00:30.829Z,20.79
2023-12-20T04:01:30.829Z,20.79
2023-12-20T04:02:30.775Z,20.79
2023-12-20T04:03:30.756Z,20.79
2023-12-20T04:04:30.839Z,20.79
2023-12-20T04:05:30.782Z,20.79
2023-12-20T04:06:30.810Z,20.79
2023-12-20T04:07:30.819Z,20.80
2023-12-20T04:08:30.716Z,20.79
2023-12-20T04:09:30.712Z,20.79
2023-12-20T04:10:30.732Z,20.79
2023-12-20T04:11:30.678Z,20.79
2023-12-20T04:12:30.677Z,20.80
2023-12-20T04:13:30.651Z,20.80
2023-12-20T04:14:30.654Z,20.80
2023-12-20T04:15:30.638Z,20.80
2023-12-20T04:16:30.629Z,20.80
2023-12-20T04:17:30.660Z,20.80
2023-12-20T04:18:30.688Z,20.80
2023-12-20T04:19:30.697Z,20.80
2023-12-20T04:20:30.593Z,20.80
2023-12-20T04:21:30.585Z,20.80
2023-12-20T04:22:30.565Z,20.80
2023-12-20T04:23:40.586Z,20.80
2023-12-20T04:24:30.550Z,20.79
2023-12-20T04:25:30.619Z,20.79
2023-12-20T04:26:30.540Z,20.80
2023-12-20T04:27:30.539Z,20.80
2023-12-20T04:28:30.531Z,20.79
2023-12-20T04:29:30.526Z,20.80
2023-12-20T04:30:30.550Z,20.80
2023-12-20T04:31:30.512Z,20.80
2023-12-20T04:32:30.469Z,20.80
2023-12-20T04:33:30.476Z,20.79
2023-12-20T04:34:30.475Z,20.79
2023-12-20T04:35:35.479Z,20.80
2023-12-20T04:36:30.434Z,20.79
2023-12-20T04:37:30.432Z,20.79
2023-12-20T04:38:30.420Z,20.80
2023-12-20T04:39:30.416Z,20.79
2023-12-20T04:40:30.426Z,20.79
2023-12-20T04:41:30.403Z,20.79
2023-12-20T04:42:30.393Z,20.79
2023-12-20T04:43:30.385Z,20.79
2023-12-20T04:44:30.355Z,20.79
2023-12-20T04:45:30.357Z,20.79
2023-12-20T04:46:30.406Z,20.79
2023-12-20T04:47:30.348Z,20.80
2023-12-20T04:48:30.333Z,20.80
2023-12-20T04:49:30.414Z,20.79
2023-12-20T04:50:30.306Z,20.80
2023-12-20T04:51:30.324Z,20.79
2023-12-20T04:52:30.326Z,20.79
2023-12-20T04:53:30.285Z,20.79
2023-12-20T04:54:30.279Z,20.79
2023-12-20T04:55:30.331Z,20.79
2023-12-20T04:56:30.264Z,20.79
2023-12-20T04:57:30.257Z,20.79
2023-12-20T04:58:30.297Z,20.79
2023-12-20T04:59:30.233Z,20.79
2023-12-20T05:00:30.211Z,20.79
2023-12-20T05:01:30.345Z,20.78
2023-12-20T05:02:30.196Z,20.79
2023-12-20T05:03:30.211Z,20.79
2023-12-20T05:04:30.255Z,20.79
2023-12-20T05:05:30.254Z,20.79
2023-12-20T05:06:30.155Z,20.78
2023-12-20T05:07:30.214Z,20.79
2023-12-20T05:08:30.136Z,20.79
2023-12-20T05:09:51.241Z,20.78
2023-12-20T05:10:30.150Z,20.75
2023-12-20T05:11:30.119Z,20.77
2023-12-20T05:12:30.103Z,20.77
2023-12-20T05:13:38.128Z,20.77
2023-12-20T05:14:40.108Z,20.76
2023-12-20T05:15:30.705Z,20.76
2023-12-20T05:16:30.083Z,20.76
2023-12-20T05:17:30.098Z,20.77
2023-12-20T05:18:30.155Z,20.77
2023-12-20T05:19:30.225Z,20.77
2023-12-20T05:20:30.104Z,20.77
2023-12-20T05:21:30.027Z,20.77
2023-12-20T05:22:30.039Z,20.77
2023-12-20T05:23:29.995Z,20.77
2023-12-20T05:24:30.020Z,20.77
2023-12-20T05:25:30.129Z,20.77
2023-12-20T05:26:29.976Z,20.78
2023-12-20T05:27:29.980Z,20.78
2023-12-20T05:28:30.016Z,20.78
2023-12-20T05:29:29.945Z,20.78
2023-12-20T05:30:29.978Z,20.78
2023-12-20T05:31:29.993Z,20.77
2023-12-20T05:32:30.017Z,20.78
2023-12-20T05:33:30.033Z,20.78
2023-12-20T05:34:30.052Z,20.78
2023-12-20T05:35:29.941Z,20.78
2023-12-20T05:36:29.887Z,20.78
2023-12-20T05:37:29.858Z,20.78
2023-12-20T05:38:29.870Z,20.78
2023-12-20T05:39:29.845Z,20.78
2023-12-20T05:40:29.854Z,20.78
2023-12-20T05:41:29.834Z,20.78
2023-12-20T05:42:29.823Z,20.78
2023-12-20T05:43:29.801Z,20.78
2023-12-20T05:44:29.829Z,20.78
2023-12-20T05:45:29.803Z,20.79
2023-12-20T05:46:29.800Z,20.79
2023-12-20T05:47:29.799Z,20.78
2023-12-20T05:48:29.796Z,20.78
2023-12-20T05:49:29.815Z,20.78
2023-12-20T05:50:29.767Z,20.78
2023-12-20T05:51:29.744Z,20.79
2023-12-20T05:52:29.730Z,20.78
2023-12-20T05:53:29.725Z,20.79
2023-12-20T05:54:29.732Z,20.79
2023-12-20T05:55:29.695Z,20.79
2023-12-20T05:56:29.691Z,20.79
2023-12-20T05:57:29.670Z,20.79
2023-12-20T05:58:29.739Z,20.79
2023-12-20T05:59:29.658Z,20.79
2023-12-20T06:00:29.662Z,20.79
2023-12-20T06:01:29.687Z,20.80
2023-12-20T06:02:29.649Z,20.79
2023-12-20T06:03:29.624Z,20.79
2023-12-20T06:04:29.738Z,20.79
2023-12-20T06:05:29.657Z,20.80
2023-12-20T06:06:29.625Z,20.80
2023-12-20T06:07:29.737Z,20.79
2023-12-20T06:08:29.580Z,20.79
2023-12-20T06:09:31.900Z,20.79
2023-12-20T06:10:33.551Z,20.80
2023-12-20T06:11:29.662Z,20.79
2023-12-20T06:12:29.662Z,20.79
2023-12-20T06:13:29.644Z,20.79
2023-12-20T06:14:29.650Z,20.80
2023-12-20T06:15:29.629Z,20.81
2023-12-20T06:16:29.686Z,20.80
2023-12-20T06:17:29.621Z,20.80
2023-12-20T06:18:29.602Z,20.81
2023-12-20T06:19:29.627Z,20.80
2023-12-20T06:20:29.583Z,20.81
2023-12-20T06:21:29.563Z,20.80
2023-12-20T06:22:29.612Z,20.80
2023-12-20T06:23:29.565Z,20.81
2023-12-20T06:24:29.581Z,20.82
2023-12-20T06:25:29.555Z,20.81
2023-12-20T06:26:29.528Z,20.82
2023-12-20T06:27:29.540Z,20.81
2023-12-20T06:28:29.548Z,20.82
2023-12-20T06:29:29.495Z,20.82
2023-12-20T06:30:29.541Z,20.82
2023-12-20T06:31:29.523Z,20.82
2023-12-20T06:32:29.500Z,20.82
2023-12-20T06:33:29.472Z,20.83
2023-12-20T06:34:29.552Z,20.83
2023-12-20T06:35:29.483Z,20.84
2023-12-20T06:36:29.463Z,20.85
2023-12-20T06:37:29.485Z,20.87
2023-12-20T06:38:29.428Z,20.88
2023-12-20T06:39:29.440Z,20.91
2023-12-20T06:40:29.431Z,20.93
2023-12-20T06:41:29.403Z,20.93
2023-12-20T06:42:31.659Z,20.93
2023-12-20T06:43:42.529Z,20.88
2023-12-20T06:44:30.449Z,20.85
2023-12-20T06:45:29.375Z,20.80
2023-12-20T06:46:29.342Z,20.74
2023-12-20T06:47:29.366Z,20.66
2023-12-20T06:48:29.318Z,20.42
2023-12-20T06:49:29.475Z,20.23
2023-12-20T06:50:29.299Z,20.08
2023-12-20T06:51:29.294Z,19.94
2023-12-20T06:52:29.283Z,19.78
2023-12-20T06:53:29.279Z,19.77
2023-12-20T06:54:29.288Z,19.82
2023-12-20T06:55:29.253Z,19.91
2023-12-20T06:56:29.266Z,20.00
2023-12-20T06:57:29.238Z,20.09
2023-12-20T06:58:29.282Z,20.19
2023-12-20T06:59:29.230Z,20.26
2023-12-20T07:00:29.301Z,20.33
2023-12-20T07:01:29.243Z,20.42
2023-12-20T07:02:29.195Z,20.50
2023-12-20T07:03:29.214Z,20.59
2023-12-20T07:04:29.289Z,20.69
2023-12-20T07:05:29.174Z,20.77
2023-12-20T07:06:29.200Z,20.85
2023-12-20T07:07:29.274Z,20.91
2023-12-20T07:08:29.153Z,20.99
2023-12-20T07:09:29.143Z,21.08
2023-12-20T07:10:29.156Z,21.14
2023-12-20T07:11:29.092Z,21.19
2023-12-20T07:12:29.099Z,21.23
2023-12-20T07:13:29.117Z,21.29
2023-12-20T07:14:29.107Z,21.33
2023-12-20T07:15:29.783Z,21.38
2023-12-20T07:16:29.091Z,21.42
2023-12-20T07:17:29.037Z,21.45
2023-12-20T07:18:29.131Z,21.50
2023-12-20T07:19:29.090Z,21.54
2023-12-20T07:20:29.066Z,21.57
2023-12-20T07:21:28.995Z,21.59
2023-12-20T07:22:30.279Z,21.63
2023-12-20T07:23:28.977Z,21.65
2023-12-20T07:24:28.987Z,21.68
2023-12-20T07:25:29.213Z,21.72
2023-12-20T07:26:28.962Z,21.74
2023-12-20T07:27:29.966Z,21.77
2023-12-20T07:28:28.985Z,21.79
2023-12-20T07:29:28.949Z,21.83
2023-12-20T07:30:28.973Z,21.85
2023-12-20T07:31:28.975Z,21.89
2023-12-20T07:32:28.915Z,21.92
2023-12-20T07:33:28.960Z,21.94
2023-12-20T07:34:29.916Z,21.97
2023-12-20T07:35:28.956Z,21.99
2023-12-20T07:36:28.866Z,22.02
2023-12-20T07:37:28.870Z,22.03
2023-12-20T07:38:28.839Z,22.05
2023-12-20T07:39:28.877Z,22.07
2023-12-20T07:40:28.884Z,22.08
2023-12-20T07:41:28.819Z,22.08
2023-12-20T07:42:28.796Z,22.10
2023-12-20T07:43:28.804Z,22.13
2023-12-20T07:44:28.880Z,22.15
2023-12-20T07:45:28.785Z,22.18
2023-12-20T07:46:28.979Z,22.20
2023-12-20T07:47:28.807Z,22.22
2023-12-20T07:48:28.785Z,22.25
2023-12-20T07:49:28.805Z,22.28
2023-12-20T07:50:28.872Z,22.30
2023-12-20T07:51:28.718Z,22.31
2023-12-20T07:52:28.812Z,22.32
2023-12-20T07:53:28.698Z,22.32
2023-12-20T07:54:28.699Z,22.30
2023-12-20T07:55:28.732Z,22.28
2023-12-20T07:56:28.678Z,22.27
2023-12-20T07:57:28.655Z,22.21
2023-12-20T07:58:40.642Z,22.17
2023-12-20T07:59:33.011Z,22.13
2023-12-20T08:00:28.701Z,22.12
2023-12-20T08:01:28.707Z,22.13
2023-12-20T08:02:28.629Z,22.10
2023-12-20T08:03:28.612Z,22.08
2023-12-20T08:04:28.741Z,22.09
2023-12-20T08:05:28.573Z,22.10
2023-12-20T08:06:28.629Z,22.09
2023-12-20T08:07:28.684Z,22.11
2023-12-20T08:08:28.563Z,22.13
2023-12-20T08:09:28.565Z,22.15
2023-12-20T08:10:28.600Z,22.19
2023-12-20T08:11:28.512Z,22.22
2023-12-20T08:12:28.546Z,22.25
2023-12-20T08:13:28.578Z,22.27
2023-12-20T08:14:28.498Z,22.29
2023-12-20T08:15:28.499Z,22.32
2023-12-20T08:16:28.723Z,22.35
2023-12-20T08:17:28.494Z,22.38
2023-12-20T08:18:28.558Z,22.40
2023-12-20T08:19:28.533Z,22.46
2023-12-20T08:20:36.756Z,22.50
2023-12-20T08:21:29.417Z,22.52
2023-12-20T08:22:28.504Z,22.54
2023-12-20T08:23:30.611Z,22.56
2023-12-20T08:24:28.408Z,22.56
2023-12-20T08:25:28.406Z,22.58
2023-12-20T08:26:28.380Z,22.58
2023-12-20T08:27:28.397Z,22.57
2023-12-20T08:28:28.445Z,22.56
2023-12-20T08:29:28.348Z,22.57
2023-12-20T08:30:28.414Z,22.58
2023-12-20T08:31:28.374Z,22.59
2023-12-20T08:32:29.312Z,22.61
2023-12-20T08:33:28.394Z,22.61
2023-12-20T08:34:28.522Z,22.62
2023-12-20T08:35:28.307Z,22.62
2023-12-20T08:36:28.303Z,22.62
2023-12-20T08:37:28.297Z,22.62
2023-12-20T08:38:28.281Z,22.65
2023-12-20T08:39:28.247Z,22.66
2023-12-20T08:40:28.320Z,22.67
2023-12-20T08:41:28.238Z,22.70
2023-12-20T08:42:28.239Z,22.79
2023-12-20T08:43:28.231Z,22.91
2023-12-20T08:44:28.240Z,22.99
2023-12-20T08:45:28.223Z,22.99
2023-12-20T08:46:28.252Z,22.96
2023-12-20T08:47:28.305Z,22.94
2023-12-20T08:48:28.355Z,22.91
2023-12-20T08:49:28.276Z,22.87
2023-12-20T08:50:28.273Z,22.83
2023-12-20T08:51:28.171Z,22.80
2023-12-20T08:52:28.196Z,22.79
2023-12-20T08:53:28.151Z,22.78
2023-12-20T08:54:28.125Z,22.80
2023-12-20T08:55:28.252Z,22.79
2023-12-20T08:56:28.108Z,22.80
2023-12-20T08:57:28.105Z,22.80
2023-12-20T08:58:28.188Z,22.80
2023-12-20T08:59:28.076Z,22.82
2023-12-20T09:00:28.091Z,22.81
2023-12-20T09:01:28.135Z,22.84
2023-12-20T09:02:28.113Z,22.84
2023-12-20T09:03:28.044Z,22.87
2023-12-20T09:04:28.144Z,22.88
2023-12-20T09:05:28.064Z,22.87
2023-12-20T09:06:28.037Z,22.88
2023-12-20T09:07:28.059Z,22.89
2023-12-20T09:08:28.010Z,22.90
2023-12-20T09:09:27.994Z,22.91
2023-12-20T09:10:28.132Z,22.92
2023-12-20T09:11:27.965Z,22.93
2023-12-20T09:12:27.957Z,22.95
2023-12-20T09:13:28.040Z,22.95
2023-12-20T09:14:27.944Z,22.96
2023-12-20T09:15:28.122Z,22.97
2023-12-20T09:16:28.019Z,22.99
2023-12-20T09:17:28.004Z,22.99
2023-12-20T09:18:28.015Z,23.00
2023-12-20T09:19:27.992Z,23.03
2023-12-20T09:20:28.070Z,23.04
2023-12-20T09:21:27.886Z,23.05
2023-12-20T09:22:28.025Z,23.06
2023-12-20T09:23:27.910Z,23.06
2023-12-20T09:24:27.843Z,23.08
2023-12-20T09:25:28.192Z,23.09
2023-12-20T09:26:27.845Z,23.10
2023-12-20T09:27:27.847Z,23.10
2023-12-20T09:28:27.863Z,23.10
2023-12-20T09:29:27.804Z,23.12
2023-12-20T09:30:28.264Z,23.14
2023-12-20T09:31:27.911Z,23.15
2023-12-20T09:32:27.794Z,23.17
2023-12-20T09:33:27.948Z,23.18
2023-12-20T09:34:27.955Z,23.18
2023-12-20T09:35:28.082Z,23.21
2023-12-20T09:36:27.761Z,23.22
2023-12-20T09:37:27.878Z,23.23
2023-12-20T09:38:27.729Z,23.24
2023-12-20T09:39:27.728Z,23.25
2023-12-20T09:40:27.962Z,23.27
2023-12-20T09:41:27.699Z,23.27
2023-12-20T09:42:27.688Z,23.29
2023-12-20T09:43:27.738Z,23.28
2023-12-20T09:44:27.713Z,23.24
2023-12-20T09:45:27.713Z,23.24
2023-12-20T09:46:27.742Z,23.21
2023-12-20T09:47:27.651Z,23.14
2023-12-20T09:48:27.723Z,23.05
2023-12-20T09:49:27.702Z,22.98
2023-12-20T09:50:27.723Z,22.94
2023-12-20T09:51:27.655Z,22.93
2023-12-20T09:52:27.681Z,22.92
2023-12-20T09:53:27.593Z,22.93
2023-12-20T09:54:27.630Z,22.93
2023-12-20T09:55:27.675Z,22.92
2023-12-20T09:56:27.577Z,22.90
2023-12-20T09:57:27.839Z,22.87
2023-12-20T09:58:27.564Z,22.76
2023-12-20T09:59:27.564Z,22.63
2023-12-20T10:00:27.523Z,22.50
2023-12-20T10:01:27.596Z,22.38
2023-12-20T10:02:27.526Z,22.27
2023-12-20T10:03:27.581Z,22.22
2023-12-20T10:04:30.472Z,22.16
2023-12-20T10:05:27.664Z,22.09
2023-12-20T10:06:27.522Z,22.04
2023-12-20T10:07:27.670Z,22.02
2023-12-20T10:08:27.496Z,21.99
2023-12-20T10:09:27.440Z,21.98
2023-12-20T10:10:35.101Z,21.97
2023-12-20T10:11:28.443Z,21.94
2023-12-20T10:12:27.400Z,21.94
2023-12-20T10:13:27.531Z,21.96
2023-12-20T10:14:27.393Z,21.98
2023-12-20T10:15:27.382Z,22.01
2023-12-20T10:16:27.390Z,22.03
2023-12-20T10:17:27.389Z,22.05
2023-12-20T10:18:37.785Z,22.06
2023-12-20T10:19:28.495Z,22.08
2023-12-20T10:20:27.424Z,22.11
2023-12-20T10:21:27.333Z,22.11
2023-12-20T10:22:27.337Z,22.13
2023-12-20T10:23:27.308Z,22.15
2023-12-20T10:24:27.888Z,22.17
2023-12-20T10:25:27.472Z,22.17
2023-12-20T10:26:27.274Z,22.18
2023-12-20T10:27:27.280Z,22.19
2023-12-20T10:28:27.284Z,22.21
2023-12-20T10:29:27.256Z,22.21
2023-12-20T10:30:27.235Z,22.23
2023-12-20T10:31:27.332Z,22.25
2023-12-20T10:32:27.390Z,22.26
2023-12-20T10:33:27.298Z,22.28
2023-12-20T10:34:27.296Z,22.30
2023-12-20T10:35:27.192Z,22.32
2023-12-20T10:36:27.181Z,22.34
2023-12-20T10:37:27.224Z,22.36
2023-12-20T10:38:27.180Z,22.36
2023-12-20T10:39:27.185Z,22.38
2023-12-20T10:40:27.214Z,22.39
2023-12-20T10:41:27.158Z,22.39
2023-12-20T10:42:27.141Z,22.41
2023-12-20T10:43:27.276Z,22.42
2023-12-20T10:44:27.111Z,22.44
2023-12-20T10:45:27.105Z,22.44
2023-12-20T10:46:27.152Z,22.47
2023-12-20T10:47:27.236Z,22.48
2023-12-20T10:48:27.152Z,22.47
2023-12-20T10:49:27.152Z,22.25
2023-12-20T10:50:27.051Z,22.06
2023-12-20T10:51:27.044Z,21.96
2023-12-20T10:52:27.180Z,21.54
2023-12-20T10:53:27.055Z,20.91
2023-12-20T10:54:27.047Z,20.41
2023-12-20T10:55:27.240Z,20.31
2023-12-20T10:56:26.987Z,20.42
2023-12-20T10:57:26.996Z,20.60
2023-12-20T10:58:27.095Z,20.78
2023-12-20T10:59:26.975Z,20.96
2023-12-20T11:00:26.963Z,21.16
2023-12-20T11:01:27.013Z,21.35
2023-12-20T11:02:26.949Z,21.52
2023-12-20T11:03:26.984Z,21.68
2023-12-20T11:04:27.023Z,21.81
2023-12-20T11:05:26.920Z,21.94
2023-12-20T11:06:26.927Z,22.07
2023-12-20T11:07:26.922Z,22.16
2023-12-20T11:08:26.902Z,22.27
2023-12-20T11:09:26.905Z,22.39
2023-12-20T11:10:27.923Z,22.49
2023-12-20T11:11:28.238Z,22.57
2023-12-20T11:12:26.871Z,22.66
2023-12-20T11:13:26.894Z,22.73
2023-12-20T11:14:26.823Z,22.80
2023-12-20T11:15:26.810Z,22.86
2023-12-20T11:16:30.178Z,22.92
2023-12-20T11:17:27.826Z,22.97
2023-12-20T11:18:26.831Z,23.02
2023-12-20T11:19:26.863Z,23.06
2023-12-20T11:20:26.776Z,23.10
2023-12-20T11:21:26.784Z,23.14
2023-12-20T11:22:26.954Z,23.17
2023-12-20T11:23:26.747Z,23.21
2023-12-20T11:24:26.739Z,23.24
2023-12-20T11:25:26.763Z,23.27
2023-12-20T11:26:26.713Z,23.30
2023-12-20T11:27:26.708Z,23.33
2023-12-20T11:28:26.719Z,23.37
2023-12-20T11:29:26.691Z,23.40
2023-12-20T11:30:26.701Z,23.43
2023-12-20T11:31:26.668Z,23.46
2023-12-20T11:32:26.735Z,23.47
2023-12-20T11:33:29.646Z,23.48
2023-12-20T11:34:26.758Z,23.49
2023-12-20T11:35:26.697Z,23.51
2023-12-20T11:36:26.744Z,23.53
2023-12-20T11:37:26.654Z,23.53
2023-12-20T11:38:26.616Z,23.54
2023-12-20T11:39:26.626Z,23.56
2023-12-20T11:40:26.781Z,23.57
2023-12-20T11:41:26.630Z,23.58
2023-12-20T11:42:26.571Z,23.56
2023-12-20T11:43:26.584Z,23.52
2023-12-20T11:44:26.568Z,23.49
2023-12-20T11:45:27.467Z,23.46
2023-12-20T11:46:26.678Z,23.42
2023-12-20T11:47:26.643Z,23.38
2023-12-20T11:48:26.669Z,23.34
2023-12-20T11:49:26.874Z,23.31
2023-12-20T11:50:26.750Z,23.27
2023-12-20T11:51:29.216Z,23.23
2023-12-20T11:52:26.628Z,23.21
2023-12-20T11:53:26.591Z,23.18
2023-12-20T11:54:30.418Z,23.15
2023-12-20T11:55:26.756Z,23.12
2023-12-20T11:56:26.546Z,23.09
2023-12-20T11:57:27.721Z,23.07
2023-12-20T11:58:26.592Z,23.05
2023-12-20T11:59:26.540Z,23.03
2023-12-20T12:00:26.528Z,23.01
2023-12-20T12:01:26.556Z,23.00
2023-12-20T12:02:26.493Z,22.97
2023-12-20T12:03:26.512Z,22.96
2023-12-20T12:04:26.513Z,22.95
2023-12-20T12:05:26.503Z,22.94
2023-12-20T12:06:26.558Z,22.93
2023-12-20T12:07:27.436Z,22.91
2023-12-20T12:08:26.480Z,22.90
2023-12-20T12:09:26.446Z,22.89
2023-12-20T12:10:26.509Z,22.89
2023-12-20T12:11:26.418Z,22.88
2023-12-20T12:12:26.448Z,22.87
2023-12-20T12:13:26.434Z,22.86
2023-12-20T12:14:26.568Z,22.85
2023-12-20T12:15:26.405Z,22.84
2023-12-20T12:16:26.409Z,22.83
2023-12-20T12:17:26.504Z,22.83
2023-12-20T12:18:26.390Z,22.82
2023-12-20T12:19:26.478Z,22.82
2023-12-20T12:20:26.441Z,22.81
2023-12-20T12:21:32.396Z,22.78
2023-12-20T12:22:27.338Z,22.78
2023-12-20T12:23:26.316Z,22.79
2023-12-20T12:24:26.299Z,22.78
2023-12-20T12:25:26.345Z,22.77
2023-12-20T12:26:26.281Z,22.77
2023-12-20T12:27:26.285Z,22.76
2023-12-20T12:28:26.276Z,22.76
2023-12-20T12:29:26.267Z,22.75
2023-12-20T12:30:28.565Z,22.74
2023-12-20T12:31:28.555Z,22.73
2023-12-20T12:32:26.491Z,22.73
2023-12-20T12:33:26.532Z,22.73
2023-12-20T12:34:26.402Z,22.73
2023-12-20T12:35:26.915Z,22.72
2023-12-20T12:36:26.345Z,22.73
2023-12-20T12:37:26.406Z,22.71
2023-12-20T12:38:26.330Z,22.71
2023-12-20T12:39:26.328Z,22.71
2023-12-20T12:40:26.396Z,22.70
2023-12-20T12:41:26.308Z,22.71
2023-12-20T12:42:26.305Z,22.70
2023-12-20T12:43:26.377Z,22.70
2023-12-20T12:44:26.317Z,22.69
2023-12-20T12:45:26.269Z,22.69
2023-12-20T12:46:26.290Z,22.69
2023-12-20T12:47:26.283Z,22.68
2023-12-20T12:48:26.334Z,22.68
2023-12-20T12:49:26.374Z,22.68
2023-12-20T12:50:26.396Z,22.68
2023-12-20T12:51:26.218Z,22.67
2023-12-20T12:52:26.273Z,22.68